createdAt,value
2022-08-20T00:00:03.294Z,49.93
2022-08-20T00:00:24.339Z,49.93
2022-08-20T00:00:45.394Z,49.92
2022-08-20T00:01:06.442Z,49.98
2022-08-20T00:01:27.554Z,50.02
2022-08-20T00:01:48.743Z,49.95
2022-08-20T00:02:09.862Z,49.97
2022-08-20T00:02:30.917Z,50.04
2022-08-20T00:02:51.970Z,50.03
2022-08-20T00:03:13.017Z,50.04
2022-08-20T00:03:34.076Z,50.12
2022-08-20T00:03:55.129Z,50.23
2022-08-20T00:04:16.281Z,50.29
2022-08-20T00:04:39.573Z,50.26
2022-08-20T00:05:00.796Z,50.16
2022-08-20T00:05:21.847Z,50.10
2022-08-20T00:05:42.894Z,50.00
2022-08-20T00:06:03.956Z,50.04
2022-08-20T00:06:25.003Z,50.09
2022-08-20T00:06:46.055Z,50.09
2022-08-20T00:07:07.122Z,50.25
2022-08-20T00:07:28.180Z,50.33
2022-08-20T00:07:49.270Z,50.38
2022-08-20T00:08:10.289Z,50.32
2022-08-20T00:08:31.338Z,50.30
2022-08-20T00:08:52.443Z,50.33
2022-08-20T00:09:13.444Z,50.47
2022-08-20T00:09:34.487Z,50.54
2022-08-20T00:09:57.796Z,50.59
2022-08-20T00:10:18.848Z,50.53
2022-08-20T00:10:39.898Z,50.50
2022-08-20T00:11:01.075Z,50.54
2022-08-20T00:11:22.138Z,50.51
2022-08-20T00:11:43.938Z,50.49
2022-08-20T00:12:04.991Z,50.42
2022-08-20T00:12:26.151Z,50.50
2022-08-20T00:12:47.201Z,50.55
2022-08-20T00:13:08.253Z,50.61
2022-08-20T00:13:29.297Z,50.51
2022-08-20T00:13:50.352Z,50.58
2022-08-20T00:14:11.399Z,50.57
2022-08-20T00:14:34.061Z,50.45
2022-08-20T00:14:55.284Z,50.49
2022-08-20T00:15:16.332Z,50.61
2022-08-20T00:15:37.388Z,50.65
2022-08-20T00:15:58.432Z,50.74
2022-08-20T00:16:19.485Z,50.81
2022-08-20T00:16:40.532Z,50.78
2022-08-20T00:17:01.577Z,50.77
2022-08-20T00:17:22.726Z,50.80
2022-08-20T00:17:43.776Z,50.80
2022-08-20T00:18:04.826Z,50.68
2022-08-20T00:18:25.879Z,50.56
2022-08-20T00:18:46.923Z,50.76
2022-08-20T00:19:07.987Z,50.89
2022-08-20T00:19:29.045Z,50.92
2022-08-20T00:19:50.089Z,50.86
2022-08-20T00:20:11.150Z,50.82
2022-08-20T00:20:32.193Z,50.73
2022-08-20T00:20:53.244Z,50.72
2022-08-20T00:21:18.924Z,50.78
2022-08-20T00:21:41.262Z,50.96
2022-08-20T00:22:03.094Z,51.00
2022-08-20T00:22:24.157Z,51.05
2022-08-20T00:22:45.209Z,51.12
2022-08-20T00:23:10.297Z,51.08
2022-08-20T00:23:31.668Z,51.10
2022-08-20T00:23:52.717Z,51.03
2022-08-20T00:24:13.770Z,51.09
2022-08-20T00:24:34.834Z,51.13
2022-08-20T00:24:55.885Z,51.19
2022-08-20T00:25:16.936Z,51.27
2022-08-20T00:25:37.987Z,51.30
2022-08-20T00:25:59.044Z,51.35
2022-08-20T00:26:20.097Z,51.38
2022-08-20T00:26:52.568Z,51.45
2022-08-20T00:27:08.106Z,51.50
2022-08-20T00:27:29.155Z,51.58
2022-08-20T00:27:50.315Z,51.59
2022-08-20T00:28:11.364Z,51.51
2022-08-20T00:28:32.423Z,51.48
2022-08-20T00:28:53.466Z,51.59
2022-08-20T00:29:14.519Z,51.52
2022-08-20T00:29:37.258Z,51.55
2022-08-20T00:29:58.307Z,51.57
2022-08-20T00:30:19.356Z,51.49
2022-08-20T00:30:40.402Z,51.60
2022-08-20T00:31:01.454Z,51.70
2022-08-20T00:31:22.515Z,51.66
2022-08-20T00:31:43.556Z,51.60
2022-08-20T00:32:04.618Z,51.68
2022-08-20T00:32:25.679Z,51.73
2022-08-20T00:32:46.830Z,51.71
2022-08-20T00:33:07.891Z,51.75
2022-08-20T00:33:28.942Z,51.78
2022-08-20T00:33:50.004Z,51.90
2022-08-20T00:34:11.064Z,51.89
2022-08-20T00:34:32.102Z,51.84
2022-08-20T00:34:53.152Z,51.91
2022-08-20T00:35:14.203Z,52.07
2022-08-20T00:35:35.245Z,52.08
2022-08-20T00:35:56.295Z,52.08
2022-08-20T00:36:17.341Z,52.10
2022-08-20T00:36:38.392Z,52.14
2022-08-20T00:36:59.439Z,52.17
2022-08-20T00:37:20.489Z,52.13
2022-08-20T00:37:41.540Z,52.23
2022-08-20T00:38:04.212Z,52.39
2022-08-20T00:38:25.347Z,52.36
2022-08-20T00:38:46.397Z,52.32
2022-08-20T00:39:07.450Z,52.35
2022-08-20T00:39:28.495Z,52.28
2022-08-20T00:39:49.596Z,52.20
2022-08-20T00:40:22.729Z,52.16
2022-08-20T00:40:37.605Z,52.15
2022-08-20T00:40:58.661Z,52.12
2022-08-20T00:41:19.701Z,52.16
2022-08-20T00:41:40.752Z,52.22
2022-08-20T00:42:01.811Z,52.25
2022-08-20T00:42:22.856Z,52.29
2022-08-20T00:42:43.909Z,52.32
2022-08-20T00:43:05.990Z,52.35
2022-08-20T00:43:27.043Z,52.36
2022-08-20T00:43:48.099Z,52.35
2022-08-20T00:44:09.146Z,52.32
2022-08-20T00:44:30.189Z,52.36
2022-08-20T00:44:51.244Z,52.36
2022-08-20T00:45:12.300Z,52.41
2022-08-20T00:45:33.783Z,52.43
2022-08-20T00:45:54.830Z,52.44
2022-08-20T00:46:15.892Z,52.48
2022-08-20T00:46:36.955Z,52.51
2022-08-20T00:46:58.000Z,52.52
2022-08-20T00:47:19.066Z,52.51
2022-08-20T00:47:40.119Z,52.55
2022-08-20T00:48:01.180Z,52.66
2022-08-20T00:48:22.338Z,52.75
2022-08-20T00:48:43.387Z,52.83
2022-08-20T00:49:04.438Z,52.93
2022-08-20T00:49:25.485Z,52.99
2022-08-20T00:49:46.548Z,52.96
2022-08-20T00:50:07.601Z,52.92
2022-08-20T00:50:28.653Z,52.99
2022-08-20T00:50:49.702Z,53.03
2022-08-20T00:51:10.747Z,53.15
2022-08-20T00:51:31.804Z,53.23
2022-08-20T00:51:52.852Z,53.22
2022-08-20T00:52:13.905Z,53.26
2022-08-20T00:52:34.958Z,53.44
2022-08-20T00:52:56.000Z,53.47
2022-08-20T00:53:17.055Z,53.46
2022-08-20T00:53:38.123Z,53.45
2022-08-20T00:53:59.177Z,53.58
2022-08-20T00:54:20.225Z,53.71
2022-08-20T00:54:41.266Z,53.86
2022-08-20T00:55:02.317Z,53.85
2022-08-20T00:55:23.370Z,53.80
2022-08-20T00:55:44.419Z,53.82
2022-08-20T00:56:05.472Z,53.89
2022-08-20T00:56:26.529Z,53.88
2022-08-20T00:56:47.588Z,53.93
2022-08-20T00:57:08.637Z,53.87
2022-08-20T00:57:29.684Z,53.98
2022-08-20T00:58:00.750Z,54.12
2022-08-20T00:58:23.609Z,53.98
2022-08-20T00:58:44.762Z,53.94
2022-08-20T00:59:05.810Z,53.92
2022-08-20T00:59:26.858Z,53.95
2022-08-20T00:59:47.911Z,53.94
2022-08-20T01:00:08.959Z,53.90
2022-08-20T01:00:30.013Z,53.93
2022-08-20T01:00:51.060Z,53.98
2022-08-20T01:01:12.116Z,53.95
2022-08-20T01:01:33.186Z,53.95
2022-08-20T01:02:00.242Z,53.95
2022-08-20T01:02:21.467Z,54.04
2022-08-20T01:02:42.510Z,54.11
2022-08-20T01:03:03.562Z,54.10
2022-08-20T01:03:24.613Z,54.06
2022-08-20T01:03:45.785Z,54.05
2022-08-20T01:04:06.841Z,54.00
2022-08-20T01:04:27.902Z,54.00
2022-08-20T01:04:48.947Z,54.06
2022-08-20T01:05:09.995Z,54.17
2022-08-20T01:05:31.045Z,54.13
2022-08-20T01:05:52.096Z,54.15
2022-08-20T01:06:13.142Z,54.21
2022-08-20T01:06:34.190Z,54.24
2022-08-20T01:06:55.251Z,54.20
2022-08-20T01:07:16.294Z,54.16
2022-08-20T01:07:37.344Z,54.11
2022-08-20T01:07:58.535Z,54.16
2022-08-20T01:08:19.619Z,54.23
2022-08-20T01:08:40.673Z,54.26
2022-08-20T01:09:01.849Z,54.22
2022-08-20T01:09:50.132Z,54.30
2022-08-20T01:09:59.009Z,54.47
2022-08-20T01:10:19.251Z,54.50
2022-08-20T01:10:40.499Z,54.45
2022-08-20T01:11:01.551Z,54.39
2022-08-20T01:11:22.603Z,54.37
2022-08-20T01:11:43.648Z,54.53
2022-08-20T01:12:04.702Z,54.53
2022-08-20T01:12:25.748Z,54.39
2022-08-20T01:12:46.801Z,54.30
2022-08-20T01:13:07.855Z,54.24
2022-08-20T01:13:28.912Z,54.21
2022-08-20T01:13:49.958Z,54.23
2022-08-20T01:14:11.027Z,54.39
2022-08-20T01:14:32.071Z,54.47
2022-08-20T01:14:53.126Z,54.57
2022-08-20T01:15:14.178Z,54.61
2022-08-20T01:15:35.223Z,54.61
2022-08-20T01:15:56.270Z,54.66
2022-08-20T01:16:17.654Z,54.61
2022-08-20T01:16:40.674Z,54.58
2022-08-20T01:17:01.879Z,54.59
2022-08-20T01:17:22.923Z,54.62
2022-08-20T01:17:43.980Z,54.59
2022-08-20T01:18:05.032Z,54.68
2022-08-20T01:18:26.083Z,54.77
2022-08-20T01:18:47.126Z,54.90
2022-08-20T01:19:29.868Z,54.99
2022-08-20T01:19:35.251Z,55.07
2022-08-20T01:19:56.305Z,55.00
2022-08-20T01:20:17.347Z,54.96
2022-08-20T01:20:38.401Z,54.89
2022-08-20T01:20:59.451Z,54.84
2022-08-20T01:21:20.499Z,54.79
2022-08-20T01:21:41.550Z,54.83
2022-08-20T01:22:02.592Z,54.83
2022-08-20T01:22:23.639Z,54.80
2022-08-20T01:22:44.707Z,54.81
2022-08-20T01:23:05.751Z,54.79
2022-08-20T01:23:26.804Z,54.78
2022-08-20T01:23:47.852Z,54.78
2022-08-20T01:24:08.900Z,54.81
2022-08-20T01:24:29.950Z,54.83
2022-08-20T01:24:51.050Z,54.82
2022-08-20T01:25:12.094Z,54.92
2022-08-20T01:25:33.146Z,55.04
2022-08-20T01:25:54.208Z,55.15
2022-08-20T01:26:15.248Z,55.21
2022-08-20T01:26:36.308Z,55.29
2022-08-20T01:26:57.355Z,55.42
2022-08-20T01:27:18.402Z,55.38
2022-08-20T01:27:42.496Z,55.40
2022-08-20T01:28:03.941Z,55.49
2022-08-20T01:28:24.988Z,55.52
2022-08-20T01:28:46.044Z,55.52
2022-08-20T01:29:07.086Z,55.49
2022-08-20T01:29:28.144Z,55.60
2022-08-20T01:29:49.184Z,55.66
2022-08-20T01:30:10.352Z,55.66
2022-08-20T01:30:31.400Z,55.64
2022-08-20T01:30:52.450Z,55.66
2022-08-20T01:31:13.500Z,55.71
2022-08-20T01:31:34.547Z,55.74
2022-08-20T01:31:55.592Z,55.78
2022-08-20T01:32:16.654Z,55.84
2022-08-20T01:32:37.706Z,55.89
2022-08-20T01:32:58.759Z,56.04
2022-08-20T01:33:19.815Z,56.20
2022-08-20T01:33:40.861Z,56.23
2022-08-20T01:34:03.053Z,56.33
2022-08-20T01:34:24.111Z,56.39
2022-08-20T01:34:45.155Z,56.46
2022-08-20T01:35:06.227Z,56.46
2022-08-20T01:35:27.293Z,56.44
2022-08-20T01:35:48.465Z,56.38
2022-08-20T01:36:09.512Z,56.46
2022-08-20T01:36:33.713Z,56.56
2022-08-20T01:36:54.768Z,56.57
2022-08-20T01:37:15.820Z,56.53
2022-08-20T01:37:36.865Z,56.58
2022-08-20T01:37:58.010Z,56.64
2022-08-20T01:38:19.065Z,56.76
2022-08-20T01:38:40.114Z,56.90
2022-08-20T01:39:07.084Z,57.18
2022-08-20T01:39:28.134Z,57.37
2022-08-20T01:39:49.211Z,57.53
2022-08-20T01:40:10.232Z,57.54
2022-08-20T01:40:32.023Z,57.58
2022-08-20T01:40:53.077Z,57.63
2022-08-20T01:41:14.135Z,57.75
2022-08-20T01:41:35.182Z,57.89
2022-08-20T01:41:56.234Z,57.91
2022-08-20T01:42:17.283Z,57.95
2022-08-20T01:42:38.332Z,57.97
2022-08-20T01:43:05.293Z,58.07
2022-08-20T01:43:27.662Z,58.06
2022-08-20T01:43:51.948Z,58.13
2022-08-20T01:44:16.845Z,58.16
2022-08-20T01:44:39.565Z,58.21
2022-08-20T01:45:00.627Z,58.24
2022-08-20T01:45:26.872Z,58.25
2022-08-20T01:45:48.782Z,58.30
2022-08-20T01:46:10.950Z,58.30
2022-08-20T01:46:32.026Z,58.31
2022-08-20T01:46:54.191Z,58.35
2022-08-20T01:47:18.706Z,58.32
2022-08-20T01:47:39.766Z,58.28
2022-08-20T01:48:04.200Z,58.33
2022-08-20T01:48:26.133Z,58.34
2022-08-20T01:48:47.177Z,58.37
2022-08-20T01:49:13.588Z,58.28
2022-08-20T01:49:35.193Z,58.16
2022-08-20T01:49:56.239Z,58.09
2022-08-20T01:50:17.284Z,58.03
2022-08-20T01:50:38.340Z,58.01
2022-08-20T01:50:59.419Z,57.99
2022-08-20T01:51:20.468Z,57.96
2022-08-20T01:51:41.519Z,57.95
2022-08-20T01:52:02.568Z,57.97
2022-08-20T01:52:23.619Z,58.12
2022-08-20T01:52:44.678Z,58.18
2022-08-20T01:53:05.724Z,58.16
2022-08-20T01:53:26.769Z,58.18
2022-08-20T01:53:47.822Z,58.15
2022-08-20T01:54:08.876Z,58.13
2022-08-20T01:54:31.376Z,58.14
2022-08-20T01:54:52.427Z,58.15
2022-08-20T01:55:13.475Z,58.10
2022-08-20T01:55:34.524Z,58.15
2022-08-20T01:55:55.587Z,58.13
2022-08-20T01:56:16.655Z,58.11
2022-08-20T01:56:37.703Z,58.07
2022-08-20T01:56:58.750Z,58.04
2022-08-20T01:57:19.805Z,58.03
2022-08-20T01:57:40.857Z,58.02
2022-08-20T01:58:02.223Z,58.00
2022-08-20T01:58:23.268Z,58.01
2022-08-20T01:58:44.333Z,58.03
2022-08-20T01:59:05.382Z,58.11
2022-08-20T01:59:26.429Z,58.19
2022-08-20T01:59:47.494Z,58.17
2022-08-20T02:00:08.534Z,58.21
2022-08-20T02:00:32.095Z,58.20
2022-08-20T02:00:53.145Z,58.23
2022-08-20T02:01:14.373Z,58.22
2022-08-20T02:01:46.717Z,58.18
2022-08-20T02:02:02.388Z,58.18
2022-08-20T02:02:23.440Z,58.15
2022-08-20T02:02:44.505Z,58.15
2022-08-20T02:03:05.546Z,58.18
2022-08-20T02:03:26.600Z,58.19
2022-08-20T02:03:47.654Z,58.18
2022-08-20T02:04:08.704Z,58.15
2022-08-20T02:04:35.663Z,58.19
2022-08-20T02:04:56.717Z,58.20
2022-08-20T02:05:17.772Z,58.22
2022-08-20T02:05:38.825Z,58.21
2022-08-20T02:05:59.870Z,58.21
2022-08-20T02:06:20.928Z,58.27
2022-08-20T02:06:41.984Z,58.32
2022-08-20T02:07:08.950Z,58.39
2022-08-20T02:07:30.002Z,58.37
2022-08-20T02:07:51.064Z,58.31
2022-08-20T02:08:12.117Z,58.27
2022-08-20T02:08:33.165Z,58.22
2022-08-20T02:08:54.215Z,58.23
2022-08-20T02:09:16.215Z,58.28
2022-08-20T02:09:37.308Z,58.34
2022-08-20T02:09:58.347Z,58.40
2022-08-20T02:10:19.404Z,58.45
2022-08-20T02:10:40.457Z,58.47
2022-08-20T02:11:01.507Z,58.44
2022-08-20T02:11:22.556Z,58.48
2022-08-20T02:11:43.607Z,58.48
2022-08-20T02:12:04.654Z,58.47
2022-08-20T02:12:25.715Z,58.39
2022-08-20T02:12:46.759Z,58.37
2022-08-20T02:13:07.825Z,58.33
2022-08-20T02:13:28.870Z,58.36
2022-08-20T02:13:49.919Z,58.39
2022-08-20T02:14:10.967Z,58.47
2022-08-20T02:14:32.014Z,58.49
2022-08-20T02:14:53.072Z,58.50
2022-08-20T02:15:14.118Z,58.55
2022-08-20T02:15:37.359Z,58.54
2022-08-20T02:16:00.692Z,58.61
2022-08-20T02:16:21.754Z,58.58
2022-08-20T02:16:42.804Z,58.53
2022-08-20T02:17:03.856Z,58.54
2022-08-20T02:17:24.901Z,58.49
2022-08-20T02:17:45.953Z,58.52
2022-08-20T02:18:08.078Z,58.56
2022-08-20T02:18:29.347Z,58.55
2022-08-20T02:18:50.397Z,58.60
2022-08-20T02:19:11.449Z,58.66
2022-08-20T02:19:32.506Z,58.74
2022-08-20T02:19:53.564Z,58.82
2022-08-20T02:20:14.612Z,58.87
2022-08-20T02:20:35.670Z,58.96
2022-08-20T02:20:56.728Z,59.04
2022-08-20T02:21:17.767Z,59.00
2022-08-20T02:21:38.816Z,58.97
2022-08-20T02:21:59.871Z,58.97
2022-08-20T02:22:20.913Z,58.97
2022-08-20T02:22:49.806Z,58.95
2022-08-20T02:23:09.532Z,58.98
2022-08-20T02:23:30.584Z,58.97
2022-08-20T02:23:51.635Z,59.01
2022-08-20T02:24:12.688Z,59.00
2022-08-20T02:24:33.728Z,59.07
2022-08-20T02:24:54.779Z,59.04
2022-08-20T02:25:15.945Z,59.02
2022-08-20T02:25:36.998Z,58.96
2022-08-20T02:25:58.045Z,58.96
2022-08-20T02:26:19.109Z,58.93
2022-08-20T02:26:40.143Z,58.94
2022-08-20T02:27:01.305Z,58.99
2022-08-20T02:27:22.310Z,59.00
2022-08-20T02:27:43.478Z,59.13
2022-08-20T02:28:05.309Z,59.14
2022-08-20T02:28:26.366Z,59.18
2022-08-20T02:28:47.418Z,59.22
2022-08-20T02:29:08.474Z,59.31
2022-08-20T02:29:29.530Z,59.35
2022-08-20T02:29:50.579Z,59.37
2022-08-20T02:30:11.638Z,59.34
2022-08-20T02:30:38.616Z,59.36
2022-08-20T02:30:59.663Z,59.33
2022-08-20T02:31:20.716Z,59.36
2022-08-20T02:32:23.406Z,59.40
2022-08-20T02:32:25.099Z,59.52
2022-08-20T02:32:35.701Z,59.48
2022-08-20T02:32:56.753Z,59.48
2022-08-20T02:33:18.765Z,59.52
2022-08-20T02:33:39.913Z,59.50
2022-08-20T02:34:22.306Z,59.51
2022-08-20T02:34:27.932Z,59.50
2022-08-20T02:34:48.999Z,59.38
2022-08-20T02:35:10.050Z,59.28
2022-08-20T02:35:31.134Z,59.24
2022-08-20T02:35:52.167Z,59.28
2022-08-20T02:36:13.218Z,59.30
2022-08-20T02:36:34.268Z,59.29
2022-08-20T02:36:55.320Z,59.27
2022-08-20T02:37:16.388Z,59.23
2022-08-20T02:37:37.541Z,59.21
2022-08-20T02:37:58.677Z,59.29
2022-08-20T02:38:19.682Z,59.26
2022-08-20T02:38:40.732Z,59.23
2022-08-20T02:39:01.793Z,59.07
2022-08-20T02:39:22.843Z,59.02
2022-08-20T02:39:43.947Z,58.94
2022-08-20T02:40:05.056Z,58.91
2022-08-20T02:40:27.248Z,58.88
2022-08-20T02:40:53.153Z,58.93
2022-08-20T02:41:14.210Z,58.91
2022-08-20T02:41:35.261Z,58.93
2022-08-20T02:41:56.316Z,58.93
2022-08-20T02:42:17.374Z,58.92
2022-08-20T02:42:38.414Z,58.98
2022-08-20T02:42:59.477Z,59.01
2022-08-20T02:43:20.523Z,59.03
2022-08-20T02:43:41.570Z,58.98
2022-08-20T02:44:02.622Z,58.94
2022-08-20T02:44:23.679Z,58.96
2022-08-20T02:44:44.734Z,58.85
2022-08-20T02:45:05.786Z,58.84
2022-08-20T02:45:26.844Z,58.78
2022-08-20T02:45:47.885Z,58.66
2022-08-20T02:46:08.958Z,58.57
2022-08-20T02:46:30.000Z,58.51
2022-08-20T02:46:51.052Z,58.44
2022-08-20T02:47:12.098Z,58.38
2022-08-20T02:47:33.143Z,58.34
2022-08-20T02:47:54.437Z,58.25
2022-08-20T02:48:15.531Z,58.05
2022-08-20T02:48:36.585Z,58.01
2022-08-20T02:48:57.627Z,58.02
2022-08-20T02:49:18.693Z,58.05
2022-08-20T02:49:39.746Z,58.04
2022-08-20T02:50:00.799Z,58.07
2022-08-20T02:50:21.850Z,58.05
2022-08-20T02:50:42.908Z,58.03
2022-08-20T02:51:03.960Z,58.04
2022-08-20T02:51:30.369Z,58.05
2022-08-20T02:51:51.997Z,58.09
2022-08-20T02:52:13.047Z,58.13
2022-08-20T02:52:34.092Z,58.14
2022-08-20T02:52:55.153Z,58.22
2022-08-20T02:53:16.205Z,58.31
2022-08-20T02:53:37.257Z,58.32
2022-08-20T02:53:58.312Z,58.32
2022-08-20T02:54:19.375Z,58.27
2022-08-20T02:54:40.428Z,58.20
2022-08-20T02:55:01.481Z,58.17
2022-08-20T02:55:23.120Z,58.00
2022-08-20T02:55:48.344Z,57.96
2022-08-20T02:56:09.405Z,57.91
2022-08-20T02:56:30.573Z,57.91
2022-08-20T02:56:51.631Z,57.91
2022-08-20T02:57:12.685Z,57.92
2022-08-20T02:57:33.730Z,57.92
2022-08-20T02:57:55.062Z,57.93
2022-08-20T02:58:19.681Z,57.86
2022-08-20T02:58:40.736Z,57.75
2022-08-20T02:59:01.782Z,57.69
2022-08-20T02:59:22.841Z,57.63
2022-08-20T02:59:43.898Z,57.55
2022-08-20T03:00:05.052Z,57.51
2022-08-20T03:00:26.126Z,57.46
2022-08-20T03:00:47.158Z,57.44
2022-08-20T03:01:08.230Z,57.47
2022-08-20T03:01:29.291Z,57.49
2022-08-20T03:01:59.603Z,57.52
2022-08-20T03:02:17.272Z,57.57
2022-08-20T03:02:38.321Z,57.54
2022-08-20T03:02:59.379Z,57.51
2022-08-20T03:03:20.546Z,57.49
2022-08-20T03:03:41.597Z,57.53
2022-08-20T03:04:02.652Z,57.58
2022-08-20T03:04:23.705Z,57.52
2022-08-20T03:04:47.155Z,57.52
2022-08-20T03:05:08.214Z,57.53
2022-08-20T03:05:29.277Z,57.50
2022-08-20T03:05:50.330Z,57.48
2022-08-20T03:06:11.380Z,57.48
2022-08-20T03:06:32.429Z,57.54
2022-08-20T03:06:53.488Z,57.55
2022-08-20T03:07:14.540Z,57.54
2022-08-20T03:07:35.592Z,57.57
2022-08-20T03:07:57.047Z,57.58
2022-08-20T03:08:18.232Z,57.62
2022-08-20T03:08:39.286Z,57.60
2022-08-20T03:09:00.356Z,57.61
2022-08-20T03:09:21.395Z,57.57
2022-08-20T03:09:42.443Z,57.44
2022-08-20T03:10:03.494Z,57.30
2022-08-20T03:10:24.556Z,57.20
2022-08-20T03:10:45.607Z,57.15
2022-08-20T03:11:06.655Z,57.06
2022-08-20T03:11:27.717Z,57.05
2022-08-20T03:11:48.764Z,57.04
2022-08-20T03:12:09.809Z,57.00
2022-08-20T03:12:30.857Z,56.92
2022-08-20T03:12:51.911Z,56.91
2022-08-20T03:13:12.973Z,56.90
2022-08-20T03:13:34.025Z,56.88
2022-08-20T03:13:55.091Z,56.85
2022-08-20T03:14:18.418Z,56.89
2022-08-20T03:14:39.479Z,56.93
2022-08-20T03:15:00.529Z,56.94
2022-08-20T03:15:21.584Z,56.95
2022-08-20T03:15:42.634Z,56.98
2022-08-20T03:16:03.686Z,57.00
2022-08-20T03:16:24.730Z,57.03
2022-08-20T03:16:45.779Z,57.06
2022-08-20T03:17:06.838Z,57.00
2022-08-20T03:17:27.877Z,56.96
2022-08-20T03:17:49.055Z,56.91
2022-08-20T03:18:10.084Z,56.88
2022-08-20T03:18:31.156Z,56.91
2022-08-20T03:18:52.388Z,56.97
2022-08-20T03:19:13.401Z,56.96
2022-08-20T03:19:34.446Z,56.96
2022-08-20T03:19:55.503Z,56.98
2022-08-20T03:20:16.557Z,56.99
2022-08-20T03:20:37.599Z,57.04
2022-08-20T03:21:00.747Z,57.06
2022-08-20T03:21:22.248Z,57.13
2022-08-20T03:21:43.286Z,57.21
2022-08-20T03:22:04.351Z,57.22
2022-08-20T03:22:25.399Z,57.23
2022-08-20T03:22:46.847Z,57.16
2022-08-20T03:23:07.896Z,57.13
2022-08-20T03:23:28.949Z,57.14
2022-08-20T03:23:50.039Z,57.15
2022-08-20T03:24:11.059Z,57.19
2022-08-20T03:24:32.105Z,57.23
2022-08-20T03:24:53.990Z,57.32
2022-08-20T03:25:15.079Z,57.32
2022-08-20T03:25:36.136Z,57.39
2022-08-20T03:25:57.187Z,57.46
2022-08-20T03:26:18.333Z,57.50
2022-08-20T03:26:39.382Z,57.59
2022-08-20T03:27:00.434Z,57.63
2022-08-20T03:27:21.488Z,57.67
2022-08-20T03:27:47.187Z,57.72
2022-08-20T03:28:14.153Z,57.68
2022-08-20T03:28:35.200Z,57.68
2022-08-20T03:28:56.248Z,57.60
2022-08-20T03:29:17.312Z,57.52
2022-08-20T03:29:38.362Z,57.49
2022-08-20T03:29:59.413Z,57.53
2022-08-20T03:30:21.090Z,57.49
2022-08-20T03:30:42.146Z,57.50
2022-08-20T03:31:03.205Z,57.46
2022-08-20T03:31:24.356Z,57.43
2022-08-20T03:31:45.404Z,57.47
2022-08-20T03:32:07.884Z,57.49
2022-08-20T03:32:28.961Z,57.52
2022-08-20T03:32:50.004Z,57.61
2022-08-20T03:33:11.054Z,57.66
2022-08-20T03:33:32.104Z,57.67
2022-08-20T03:33:53.826Z,57.57
2022-08-20T03:34:14.970Z,57.54
2022-08-20T03:34:36.021Z,57.50
2022-08-20T03:34:57.065Z,57.47
2022-08-20T03:35:18.117Z,57.48
2022-08-20T03:35:39.166Z,57.50
2022-08-20T03:36:00.218Z,57.48
2022-08-20T03:36:27.740Z,57.54
2022-08-20T03:36:48.344Z,57.67
2022-08-20T03:37:09.388Z,57.65
2022-08-20T03:37:30.440Z,57.59
2022-08-20T03:37:51.563Z,57.58
2022-08-20T03:38:13.071Z,57.53
2022-08-20T03:38:34.369Z,57.53
2022-08-20T03:38:55.417Z,57.50
2022-08-20T03:39:16.470Z,57.51
2022-08-20T03:39:37.599Z,57.51
2022-08-20T03:39:58.686Z,57.51
2022-08-20T03:40:19.722Z,57.48
2022-08-20T03:40:40.770Z,57.45
2022-08-20T03:41:01.832Z,57.48
2022-08-20T03:41:22.992Z,57.49
2022-08-20T03:41:44.037Z,57.49
2022-08-20T03:42:05.082Z,57.49
2022-08-20T03:42:26.132Z,57.51
2022-08-20T03:42:47.180Z,57.52
2022-08-20T03:43:08.232Z,57.55
2022-08-20T03:43:29.276Z,57.56
2022-08-20T03:43:50.323Z,57.53
2022-08-20T03:44:11.372Z,57.53
2022-08-20T03:44:32.417Z,57.62
2022-08-20T03:44:59.030Z,57.55
2022-08-20T03:45:20.701Z,57.54
2022-08-20T03:45:41.724Z,57.58
2022-08-20T03:46:02.781Z,57.66
2022-08-20T03:46:24.190Z,57.73
2022-08-20T03:46:45.209Z,57.81
2022-08-20T03:47:06.255Z,57.81
2022-08-20T03:47:27.302Z,57.71
2022-08-20T03:47:48.355Z,57.63
2022-08-20T03:48:09.406Z,57.68
2022-08-20T03:48:30.450Z,57.70
2022-08-20T03:48:58.719Z,57.68
2022-08-20T03:49:18.465Z,57.67
2022-08-20T03:49:39.517Z,57.61
2022-08-20T03:50:00.581Z,57.58
2022-08-20T03:50:23.518Z,57.59
2022-08-20T03:50:44.820Z,57.62
2022-08-20T03:51:05.878Z,57.60
2022-08-20T03:51:26.955Z,57.63
2022-08-20T03:51:57.323Z,57.64
2022-08-20T03:52:14.969Z,57.71
2022-08-20T03:52:36.021Z,57.67
2022-08-20T03:52:57.071Z,57.68
2022-08-20T03:53:18.123Z,57.71
2022-08-20T03:53:39.168Z,57.77
2022-08-20T03:54:00.213Z,57.74
2022-08-20T03:54:21.268Z,57.79
2022-08-20T03:54:42.323Z,57.84
2022-08-20T03:55:03.370Z,57.82
2022-08-20T03:55:24.421Z,57.79
2022-08-20T03:55:45.472Z,57.79
2022-08-20T03:56:12.430Z,57.85
2022-08-20T03:56:33.594Z,57.78
2022-08-20T03:56:54.644Z,57.72
2022-08-20T03:57:15.692Z,57.64
2022-08-20T03:57:36.744Z,57.56
2022-08-20T03:57:58.065Z,57.51
2022-08-20T03:58:19.322Z,57.46
2022-08-20T03:58:40.364Z,57.46
2022-08-20T03:59:01.419Z,57.51
2022-08-20T03:59:22.463Z,57.54
2022-08-20T03:59:43.512Z,57.60
2022-08-20T04:00:04.566Z,57.60
2022-08-20T04:00:25.612Z,57.51
2022-08-20T04:00:46.654Z,57.54
2022-08-20T04:01:07.730Z,57.63
2022-08-20T04:01:44.281Z,57.70
2022-08-20T04:02:01.823Z,57.66
2022-08-20T04:02:22.887Z,57.63
2022-08-20T04:02:43.938Z,57.60
2022-08-20T04:03:04.983Z,57.67
2022-08-20T04:03:26.039Z,57.64
2022-08-20T04:03:47.082Z,57.60
2022-08-20T04:04:12.411Z,57.56
2022-08-20T04:04:33.696Z,57.63
2022-08-20T04:04:54.745Z,57.67
2022-08-20T04:05:15.788Z,57.81
2022-08-20T04:05:36.838Z,57.96
2022-08-20T04:05:57.900Z,58.02
2022-08-20T04:06:18.953Z,57.99
2022-08-20T04:06:40.431Z,57.95
2022-08-20T04:07:02.159Z,57.96
2022-08-20T04:07:23.209Z,57.93
2022-08-20T04:07:44.256Z,57.96
2022-08-20T04:08:05.308Z,57.92
2022-08-20T04:08:26.361Z,57.92
2022-08-20T04:08:47.417Z,57.87
2022-08-20T04:09:09.486Z,57.77
2022-08-20T04:09:31.454Z,57.76
2022-08-20T04:09:52.501Z,57.79
2022-08-20T04:10:13.554Z,57.86
2022-08-20T04:10:34.599Z,57.90
2022-08-20T04:10:55.675Z,57.94
2022-08-20T04:11:16.722Z,58.04
2022-08-20T04:11:37.772Z,58.06
2022-08-20T04:11:58.837Z,58.03
2022-08-20T04:12:19.887Z,58.06
2022-08-20T04:12:52.682Z,58.06
2022-08-20T04:13:09.000Z,58.08
2022-08-20T04:13:30.904Z,58.04
2022-08-20T04:13:51.947Z,57.95
2022-08-20T04:14:18.460Z,57.96
2022-08-20T04:14:40.086Z,58.06
2022-08-20T04:15:02.180Z,58.07
2022-08-20T04:15:24.649Z,58.18
2022-08-20T04:15:45.675Z,58.25
2022-08-20T04:16:06.823Z,58.11
2022-08-20T04:16:32.224Z,58.03
2022-08-20T04:16:54.527Z,58.05
2022-08-20T04:17:15.596Z,57.97
2022-08-20T04:17:36.972Z,57.99
2022-08-20T04:17:58.355Z,57.95
2022-08-20T04:18:19.486Z,57.92
2022-08-20T04:18:40.540Z,57.90
2022-08-20T04:19:02.831Z,57.97
2022-08-20T04:19:23.901Z,58.03
2022-08-20T04:19:44.950Z,58.02
2022-08-20T04:20:06.007Z,58.01
2022-08-20T04:20:27.049Z,57.99
2022-08-20T04:20:48.115Z,57.93
2022-08-20T04:21:09.167Z,57.91
2022-08-20T04:21:32.679Z,57.87
2022-08-20T04:21:54.280Z,57.90
2022-08-20T04:22:15.314Z,57.89
2022-08-20T04:22:36.484Z,57.93
2022-08-20T04:22:58.427Z,57.98
2022-08-20T04:23:19.916Z,57.96
2022-08-20T04:23:40.963Z,57.98
2022-08-20T04:24:02.015Z,57.96
2022-08-20T04:24:32.101Z,57.93
2022-08-20T04:24:50.030Z,58.02
2022-08-20T04:25:11.083Z,58.01
2022-08-20T04:25:37.034Z,57.97
2022-08-20T04:26:03.991Z,57.95
2022-08-20T04:26:25.035Z,57.91
2022-08-20T04:26:46.083Z,57.94
2022-08-20T04:27:07.131Z,57.94
2022-08-20T04:27:28.183Z,57.95
2022-08-20T04:27:49.253Z,57.97
2022-08-20T04:28:10.301Z,58.03
2022-08-20T04:28:35.199Z,58.26
2022-08-20T04:28:56.258Z,58.34
2022-08-20T04:29:17.299Z,58.38
2022-08-20T04:29:38.345Z,58.44
2022-08-20T04:29:59.393Z,58.43
2022-08-20T04:30:20.444Z,58.41
2022-08-20T04:30:43.407Z,58.38
2022-08-20T04:31:08.454Z,58.34
2022-08-20T04:31:29.500Z,58.32
2022-08-20T04:31:50.551Z,58.34
2022-08-20T04:32:11.606Z,58.37
2022-08-20T04:32:32.655Z,58.40
2022-08-20T04:32:53.843Z,58.42
2022-08-20T04:33:15.200Z,58.43
2022-08-20T04:33:40.205Z,58.33
2022-08-20T04:34:01.258Z,58.17
2022-08-20T04:34:22.318Z,58.07
2022-08-20T04:34:43.371Z,58.09
2022-08-20T04:35:08.339Z,58.21
2022-08-20T04:35:29.400Z,58.11
2022-08-20T04:35:50.449Z,58.06
2022-08-20T04:36:11.503Z,58.04
2022-08-20T04:36:32.549Z,58.03
2022-08-20T04:36:53.608Z,58.00